createdAt,value
2022-08-01T00:01:56.034Z,100.00
2022-08-01T00:18:41.378Z,100.00
2022-08-01T00:27:32.414Z,100.00
2022-08-01T00:30:35.048Z,100.00
2022-08-01T00:33:33.346Z,100.00
2022-08-01T00:36:00.498Z,100.00
2022-08-01T00:38:37.799Z,100.00
2022-08-01T00:41:11.836Z,100.00
2022-08-01T00:44:01.541Z,100.00
2022-08-01T00:46:46.373Z,100.00
2022-08-01T00:49:21.473Z,100.00
2022-08-01T00:51:54.354Z,100.00
2022-08-01T00:54:33.016Z,100.00
2022-08-01T00:57:15.041Z,100.00
2022-08-01T00:59:48.887Z,100.00
2022-08-01T01:02:18.487Z,100.00
2022-08-01T01:04:47.404Z,100.00
2022-08-01T01:07:23.755Z,100.00
2022-08-01T01:10:14.730Z,100.00
2022-08-01T01:12:56.044Z,100.00
2022-08-01T01:15:32.346Z,100.00
2022-08-01T01:18:14.811Z,100.00
2022-08-01T01:20:53.384Z,100.00
2022-08-01T01:23:41.320Z,100.00
2022-08-01T01:26:28.138Z,100.00
2022-08-01T01:29:26.765Z,100.00
2022-08-01T01:32:10.889Z,100.00
2022-08-01T01:34:41.734Z,100.00
2022-08-01T01:37:13.680Z,100.00
2022-08-01T01:39:45.270Z,100.00
2022-08-01T01:42:12.178Z,100.00
2022-08-01T01:44:48.548Z,100.00
2022-08-01T01:47:19.160Z,100.00
2022-08-01T01:49:50.084Z,100.00
2022-08-01T01:52:18.178Z,100.00
2022-08-01T01:54:54.389Z,100.00
2022-08-01T01:57:34.968Z,100.00
2022-08-01T02:00:07.760Z,100.00
2022-08-01T02:02:37.118Z,100.00
2022-08-01T02:05:12.324Z,100.00
2022-08-01T02:07:40.820Z,100.00
2022-08-01T02:10:11.203Z,100.00
2022-08-01T02:12:42.073Z,100.00
2022-08-01T02:15:12.424Z,100.00
2022-08-01T02:17:44.528Z,100.00
2022-08-01T02:20:12.898Z,100.00
2022-08-01T02:22:44.750Z,100.00
2022-08-01T02:25:16.533Z,100.00
2022-08-01T02:27:46.887Z,100.00
2022-08-01T02:30:16.977Z,100.00
2022-08-01T02:32:48.528Z,100.00
2022-08-01T02:35:21.368Z,100.00
2022-08-01T02:37:49.654Z,100.00
2022-08-01T02:40:18.886Z,100.00
2022-08-01T02:42:50.288Z,100.00
2022-08-01T02:45:19.535Z,100.00
2022-08-01T02:47:48.886Z,100.00
2022-08-01T02:50:18.333Z,100.00
2022-08-01T02:52:49.369Z,100.00
2022-08-01T02:55:17.933Z,100.00
2022-08-01T02:57:52.350Z,100.00
2022-08-01T03:00:26.772Z,100.00
2022-08-01T03:02:54.601Z,100.00
2022-08-01T03:05:24.146Z,100.00
2022-08-01T03:07:52.607Z,100.00
2022-08-01T03:10:21.696Z,100.00
2022-08-01T03:12:50.989Z,99.85
2022-08-01T03:15:18.980Z,99.99
2022-08-01T03:17:49.514Z,99.63
2022-08-01T03:20:20.609Z,99.64
2022-08-01T03:22:50.257Z,99.65
2022-08-01T03:25:21.101Z,99.84
2022-08-01T03:27:55.311Z,99.46
2022-08-01T03:30:25.173Z,99.54
2022-08-01T03:32:59.178Z,99.35
2022-08-01T03:35:35.706Z,99.08
2022-08-01T03:38:16.283Z,98.82
2022-08-01T03:40:50.406Z,99.14
2022-08-01T03:43:27.478Z,99.01
2022-08-01T03:45:55.097Z,98.76
2022-08-01T03:48:29.906Z,98.81
2022-08-01T03:51:00.237Z,98.46
2022-08-01T03:53:31.811Z,98.26
2022-08-01T03:56:03.111Z,98.23
2022-08-01T03:58:30.661Z,98.22
2022-08-01T04:01:01.162Z,98.04
2022-08-01T04:03:29.814Z,98.13
2022-08-01T04:05:56.628Z,97.81
2022-08-01T04:08:29.919Z,97.38
2022-08-01T04:10:57.055Z,97.07
2022-08-01T04:13:23.942Z,96.97
2022-08-01T04:15:50.624Z,96.56
2022-08-01T04:18:18.347Z,95.98
2022-08-01T04:20:48.866Z,95.05
2022-08-01T04:23:17.404Z,95.06
2022-08-01T04:25:49.239Z,95.01
2022-08-01T04:28:18.345Z,94.33
2022-08-01T04:30:48.889Z,93.99
2022-08-01T04:33:17.345Z,93.94
2022-08-01T04:36:01.477Z,93.25
2022-08-01T04:38:32.944Z,92.71
2022-08-01T04:41:01.028Z,93.12
2022-08-01T04:43:36.774Z,92.81
2022-08-01T04:46:04.292Z,92.52
2022-08-01T04:48:33.108Z,92.50
2022-08-01T04:51:01.670Z,92.08
2022-08-01T04:53:31.265Z,91.84
2022-08-01T04:55:58.294Z,91.60
2022-08-01T04:58:25.306Z,91.42
2022-08-01T05:00:52.081Z,91.08
2022-08-01T05:03:19.448Z,90.86
2022-08-01T05:05:46.136Z,90.85
2022-08-01T05:08:12.891Z,90.13
2022-08-01T05:10:40.983Z,90.05
2022-08-01T05:13:07.746Z,89.96
2022-08-01T05:15:36.030Z,89.92
2022-08-01T05:18:04.678Z,89.32
2022-08-01T05:20:31.442Z,89.47
2022-08-01T05:22:58.371Z,89.18
2022-08-01T05:25:55.975Z,88.92
2022-08-01T05:28:17.173Z,88.87
2022-08-01T05:30:46.044Z,89.07
2022-08-01T05:33:12.749Z,88.68
2022-08-01T05:35:48.135Z,88.83
2022-08-01T05:38:16.361Z,88.83
2022-08-01T05:40:43.253Z,88.63
2022-08-01T05:43:10.051Z,88.58
2022-08-01T05:45:38.448Z,88.55
2022-08-01T05:48:06.158Z,88.52
2022-08-01T05:50:33.923Z,88.62
2022-08-01T05:53:00.636Z,88.20
2022-08-01T05:55:28.716Z,88.11
2022-08-01T05:57:55.481Z,88.22
2022-08-01T06:00:22.508Z,87.71
2022-08-01T06:02:50.923Z,88.09
2022-08-01T06:05:19.236Z,88.08
2022-08-01T06:07:46.564Z,87.94
2022-08-01T06:10:16.225Z,87.79
2022-08-01T06:12:42.982Z,87.94
2022-08-01T06:15:12.224Z,87.78
2022-08-01T06:17:38.973Z,87.90
2022-08-01T06:20:11.850Z,87.80
2022-08-01T06:22:39.010Z,88.14
2022-08-01T06:25:09.193Z,88.31
2022-08-01T06:27:36.117Z,87.82
2022-08-01T06:30:02.966Z,87.85
2022-08-01T06:32:29.872Z,87.96
2022-08-01T06:38:40.550Z,87.39
2022-08-01T06:41:44.043Z,85.78
2022-08-01T06:44:35.869Z,86.22
2022-08-01T06:47:07.390Z,85.75
2022-08-01T06:52:52.203Z,84.80
2022-08-01T07:01:38.693Z,84.63
2022-08-01T07:04:38.020Z,84.24
2022-08-01T07:07:26.770Z,83.75
2022-08-01T07:10:13.963Z,83.23
2022-08-01T07:13:25.330Z,80.19
2022-08-01T07:16:22.560Z,81.80
2022-08-01T07:19:02.615Z,81.06
2022-08-01T07:22:01.453Z,80.15
2022-08-01T07:24:48.237Z,80.17
2022-08-01T07:33:48.528Z,79.94
2022-08-01T07:36:53.677Z,78.53
2022-08-01T07:39:48.318Z,78.30
2022-08-01T07:43:03.468Z,78.99
2022-08-01T07:52:04.438Z,76.25
2022-08-01T07:54:47.044Z,76.73
2022-08-01T08:01:20.354Z,77.16
2022-08-01T08:03:56.710Z,75.83
2022-08-01T08:07:09.672Z,74.73
2022-08-01T08:09:45.972Z,75.59
2022-08-01T08:12:56.998Z,75.86
2022-08-01T08:15:41.953Z,75.55
2022-08-01T08:18:39.077Z,74.45
2022-08-01T08:21:29.595Z,75.35
2022-08-01T08:24:08.064Z,75.02
2022-08-01T08:35:54.162Z,72.26
2022-08-01T08:39:05.361Z,72.67
2022-08-01T08:42:10.340Z,72.50
2022-08-01T08:45:58.833Z,71.73
2022-08-01T08:48:01.737Z,70.25
2022-08-01T08:50:45.176Z,70.12
2022-08-01T08:53:35.476Z,70.45
2022-08-01T08:56:15.701Z,70.25
2022-08-01T08:58:57.991Z,68.56
2022-08-01T09:01:41.805Z,69.03
2022-08-01T09:04:36.272Z,68.89
2022-08-01T09:07:42.216Z,67.16
2022-08-01T09:10:34.051Z,68.72
2022-08-01T09:16:26.448Z,65.72
2022-08-01T09:19:39.666Z,65.95
2022-08-01T09:22:38.916Z,66.82
2022-08-01T09:34:36.659Z,60.27
2022-08-01T09:37:49.542Z,61.47
2022-08-01T09:40:52.499Z,64.33
2022-08-01T09:46:59.305Z,56.44
2022-08-01T09:53:29.697Z,60.08
2022-08-01T10:02:42.117Z,55.46
2022-08-01T10:12:39.323Z,52.44
2022-08-01T10:15:55.301Z,50.14
2022-08-01T10:18:55.573Z,50.23
2022-08-01T10:35:14.833Z,47.41
2022-08-01T11:08:24.561Z,41.82
2022-08-01T11:24:55.165Z,38.70
2022-08-01T11:48:55.752Z,36.98
2022-08-01T12:01:52.845Z,38.00
2022-08-01T12:04:58.621Z,38.44
2022-08-01T12:08:51.783Z,37.84
2022-08-01T12:32:04.584Z,37.03
2022-08-01T12:38:35.795Z,35.53
2022-08-01T12:41:43.325Z,36.40
2022-08-01T12:51:17.833Z,35.45
2022-08-01T12:54:18.565Z,34.88
2022-08-01T12:57:04.940Z,34.43
2022-08-01T13:06:16.458Z,35.71
2022-08-01T13:09:55.203Z,35.10
2022-08-01T13:15:48.369Z,34.92
2022-08-01T13:21:52.640Z,34.56
2022-08-01T13:25:17.681Z,34.59
2022-08-01T13:32:27.702Z,34.44
2022-08-01T13:35:53.285Z,34.91
2022-08-01T13:38:59.846Z,35.45
2022-08-01T13:44:30.157Z,35.53
2022-08-01T13:46:58.197Z,35.41
2022-08-01T13:53:14.912Z,35.62
2022-08-01T14:20:24.630Z,36.89
2022-08-01T14:32:47.107Z,36.95
2022-08-01T14:48:58.577Z,35.74
2022-08-01T14:58:42.707Z,36.48
2022-08-01T15:01:40.624Z,36.41
2022-08-01T15:04:26.380Z,36.56
2022-08-01T15:13:40.450Z,34.75
2022-08-01T15:19:18.870Z,34.72
2022-08-01T15:22:18.561Z,35.10
2022-08-01T15:25:19.929Z,33.12
2022-08-01T15:27:51.809Z,33.74
2022-08-01T15:36:31.228Z,33.05
2022-08-01T15:39:10.747Z,34.36
2022-08-01T15:42:28.430Z,33.51
2022-08-01T15:49:25.938Z,35.89
2022-08-01T15:58:40.250Z,34.87
2022-08-01T16:07:18.569Z,35.25
2022-08-01T16:10:22.415Z,35.08
2022-08-01T16:15:08.338Z,37.14
2022-08-01T16:20:13.035Z,35.81
2022-08-01T16:22:53.302Z,36.62
2022-08-01T16:28:37.456Z,36.59
2022-08-01T16:31:26.721Z,36.70
2022-08-01T16:34:56.350Z,36.61
2022-08-01T16:37:51.981Z,37.16
2022-08-01T16:44:10.709Z,37.11
2022-08-01T16:47:11.732Z,37.10
2022-08-01T16:56:04.117Z,38.36
2022-08-01T16:58:48.682Z,38.65
2022-08-01T17:04:34.511Z,38.96
2022-08-01T17:07:16.304Z,38.79
2022-08-01T17:13:37.879Z,39.77
2022-08-01T17:23:40.941Z,41.06
2022-08-01T17:26:50.281Z,41.59
2022-08-01T17:29:22.500Z,42.42
2022-08-01T17:32:14.618Z,43.00
2022-08-01T17:35:01.596Z,43.34
2022-08-01T17:37:57.619Z,43.26
2022-08-01T18:02:08.744Z,46.02
2022-08-01T18:07:22.270Z,45.84
2022-08-01T18:10:23.480Z,46.10
2022-08-01T18:13:29.978Z,47.37
2022-08-01T18:16:16.283Z,47.30
2022-08-01T18:19:10.074Z,47.03
2022-08-01T18:28:16.311Z,48.12
2022-08-01T18:30:35.329Z,47.90
2022-08-01T18:33:28.659Z,48.58
2022-08-01T18:36:31.624Z,49.71
2022-08-01T18:41:58.205Z,49.30
2022-08-01T18:44:48.738Z,49.56
2022-08-01T18:47:31.361Z,49.57
2022-08-01T18:50:26.234Z,49.83
2022-08-01T18:53:09.040Z,50.71
2022-08-01T18:55:57.462Z,49.79
2022-08-01T18:58:42.396Z,50.32
2022-08-01T19:01:27.327Z,50.65
2022-08-01T19:04:13.879Z,51.34
2022-08-01T19:18:34.037Z,51.79
2022-08-01T19:21:08.430Z,51.78
2022-08-01T19:23:42.200Z,53.14
2022-08-01T19:26:22.422Z,52.62
2022-08-01T19:28:59.810Z,52.33
2022-08-01T19:31:36.782Z,52.97
2022-08-01T19:34:13.963Z,52.98
2022-08-01T19:40:26.948Z,53.82
2022-08-01T19:43:12.683Z,53.72
2022-08-01T19:46:03.665Z,53.41
2022-08-01T19:48:51.480Z,53.88
2022-08-01T19:52:10.610Z,54.38
2022-08-01T19:54:47.186Z,54.06
2022-08-01T19:57:26.912Z,53.69
2022-08-01T20:00:39.211Z,54.74
2022-08-01T20:03:20.647Z,54.22
2022-08-01T20:05:57.082Z,54.87
2022-08-01T20:08:42.756Z,54.48
2022-08-01T20:11:47.492Z,54.31
2022-08-01T20:14:27.116Z,54.45
2022-08-01T20:20:12.253Z,55.37
2022-08-01T20:23:01.303Z,55.67
2022-08-01T20:26:02.920Z,55.71
2022-08-01T20:35:51.124Z,57.21
2022-08-01T20:38:50.125Z,57.43
2022-08-01T20:41:45.989Z,57.81
2022-08-01T20:47:38.645Z,58.47
2022-08-01T20:50:26.975Z,58.43
2022-08-01T20:53:17.046Z,58.12
2022-08-01T20:56:10.912Z,59.38
2022-08-01T21:01:48.091Z,60.01
2022-08-01T21:04:47.172Z,60.77
2022-08-01T21:07:31.016Z,60.48
2022-08-01T21:13:41.816Z,60.64
2022-08-01T21:16:25.182Z,60.58
2022-08-01T21:19:19.597Z,61.23
2022-08-01T21:22:01.610Z,61.91
2022-08-01T21:24:38.403Z,61.96
2022-08-01T21:27:19.328Z,62.28
2022-08-01T21:29:56.123Z,62.13
2022-08-01T21:32:31.794Z,62.45
2022-08-01T21:35:16.671Z,62.78
2022-08-01T21:37:56.051Z,62.78
2022-08-01T21:40:35.600Z,63.14
2022-08-01T21:43:19.624Z,63.52
2022-08-01T21:46:01.193Z,63.81
2022-08-01T21:48:33.972Z,64.75
2022-08-01T21:51:14.991Z,63.42
2022-08-01T21:53:50.348Z,63.93
2022-08-01T21:56:36.592Z,64.19
2022-08-01T21:59:20.984Z,64.56
2022-08-01T22:05:04.031Z,64.96
2022-08-01T22:07:39.324Z,65.28
2022-08-01T22:10:15.700Z,65.46
2022-08-01T22:12:48.572Z,65.55
2022-08-01T22:15:24.251Z,65.57
2022-08-01T22:18:12.900Z,65.86
2022-08-01T22:20:49.248Z,65.91
2022-08-01T22:23:36.666Z,65.99
2022-08-01T22:26:15.933Z,66.05
2022-08-01T22:28:53.934Z,66.37
2022-08-01T22:31:22.471Z,66.57
2022-08-01T22:33:53.263Z,66.47
2022-08-01T22:36:28.830Z,66.58
2022-08-01T22:38:59.346Z,66.68
2022-08-01T22:42:01.863Z,67.08
2022-08-01T22:44:32.509Z,66.88
2022-08-01T22:47:14.543Z,66.98
2022-08-01T22:50:03.769Z,67.54
2022-08-01T22:52:51.410Z,67.38
2022-08-01T22:55:25.045Z,67.43
2022-08-01T22:58:23.042Z,67.53
2022-08-01T23:01:20.943Z,67.78
2022-08-01T23:04:03.038Z,67.87
2022-08-01T23:06:43.920Z,68.39
2022-08-01T23:09:15.547Z,68.36
2022-08-01T23:11:46.303Z,68.38
2022-08-01T23:14:22.224Z,68.45
2022-08-01T23:16:53.324Z,68.65
2022-08-01T23:19:24.843Z,68.68
2022-08-01T23:22:05.676Z,69.08
2022-08-01T23:24:39.895Z,68.94
2022-08-01T23:27:55.798Z,69.01
2022-08-01T23:30:28.796Z,68.98
2022-08-01T23:32:56.401Z,68.85
2022-08-01T23:35:39.077Z,68.87
2022-08-01T23:38:11.684Z,69.40
2022-08-01T23:40:40.743Z,69.60
2022-08-01T23:43:16.131Z,69.86
2022-08-01T23:46:03.572Z,69.68
2022-08-01T23:48:40.658Z,70.01
2022-08-01T23:51:24.035Z,70.09
2022-08-01T23:54:01.196Z,70.03
2022-08-01T23:56:29.642Z,70.14
2022-08-01T23:59:06.081Z,70.23
